GEOFB HBBA-HTTB
Flight info
| Callsign | GEOFB |
|---|---|
| Flight time | 0h 34m |
| Altitude | 37000 |
| Route | ESVIM DCT UDMAM DCT NEXAD |
| Aircraft | C750/M-SBDE3FGHRWXY/S |
Departure
| Time | 2026-04-30 17:41 |
|---|---|
| Airport | Bujumbura Melchior Ndadaye International Airport (HBBA) |
Arrival
| Time | 2026-04-30 18:15 |
|---|---|
| Airport | Tabora Airport (HTTB) |
| Time | Latitude | Longitude | Altitude | Speed | Heading |
|---|---|---|---|---|---|
| 2026-04-30 17:39 | -3.36422 | 29.32622 | 3408 ft | 220 kts | 146° |
| 2026-04-30 17:41 | -3.39869 | 29.47013 | 10498 ft | 302 kts | 106° |
| 2026-04-30 17:42 | -3.41209 | 29.51362 | 10981 ft | 354 kts | 107° |
| 2026-04-30 17:42 | -3.43390 | 29.58498 | 13413 ft | 363 kts | 107° |
| 2026-04-30 17:43 | -3.44890 | 29.63390 | 14816 ft | 372 kts | 107° |
| 2026-04-30 17:44 | -3.47189 | 29.70903 | 16879 ft | 385 kts | 107° |
| 2026-04-30 17:44 | -3.49577 | 29.78708 | 19013 ft | 398 kts | 107° |
| 2026-04-30 17:46 | -3.53968 | 29.92137 | 22494 ft | 417 kts | 108° |
| 2026-04-30 17:47 | -3.57658 | 30.03380 | 25042 ft | 432 kts | 108° |
| 2026-04-30 17:48 | -3.61475 | 30.15010 | 27388 ft | 447 kts | 109° |
| 2026-04-30 17:48 | -3.64411 | 30.23958 | 29083 ft | 459 kts | 109° |
| 2026-04-30 17:49 | -3.68462 | 30.36306 | 31041 ft | 473 kts | 109° |
| 2026-04-30 17:50 | -3.72397 | 30.48702 | 33568 ft | 465 kts | 107° |
| 2026-04-30 17:51 | -3.75267 | 30.57916 | 35309 ft | 460 kts | 107° |
| 2026-04-30 17:52 | -3.78081 | 30.67044 | 36971 ft | 454 kts | 107° |
| 2026-04-30 17:53 | -3.83036 | 30.83056 | 37011 ft | 509 kts | 107° |
| 2026-04-30 17:54 | -3.87295 | 30.96820 | 37002 ft | 521 kts | 107° |
| 2026-04-30 17:56 | -3.95848 | 31.24499 | 36979 ft | 521 kts | 107° |
| 2026-04-30 17:58 | -4.02252 | 31.45247 | 36970 ft | 521 kts | 107° |
| 2026-04-30 17:59 | -4.06311 | 31.58406 | 35056 ft | 460 kts | 107° |
| 2026-04-30 18:00 | -4.10071 | 31.70615 | 32629 ft | 466 kts | 107° |
| 2026-04-30 18:00 | -4.12966 | 31.79985 | 30773 ft | 473 kts | 107° |
| 2026-04-30 18:01 | -4.14891 | 31.86256 | 29474 ft | 465 kts | 107° |
| 2026-04-30 18:02 | -4.19363 | 31.94515 | 27665 ft | 453 kts | 134° |
| 2026-04-30 18:02 | -4.26078 | 32.01027 | 25901 ft | 441 kts | 134° |
| 2026-04-30 18:03 | -4.32564 | 32.07374 | 24173 ft | 429 kts | 134° |
| 2026-04-30 18:04 | -4.38859 | 32.13526 | 22451 ft | 419 kts | 134° |
| 2026-04-30 18:05 | -4.47101 | 32.21589 | 20271 ft | 409 kts | 135° |
| 2026-04-30 18:06 | -4.55109 | 32.29422 | 18131 ft | 398 kts | 136° |
| 2026-04-30 18:07 | -4.62901 | 32.37045 | 16044 ft | 385 kts | 136° |
| 2026-04-30 18:08 | -4.68586 | 32.42602 | 14544 ft | 376 kts | 135° |
| 2026-04-30 18:09 | -4.75915 | 32.49782 | 12558 ft | 362 kts | 135° |
| 2026-04-30 18:10 | -4.82875 | 32.56596 | 10711 ft | 319 kts | 135° |
| 2026-04-30 18:11 | -4.88669 | 32.62273 | 9149 ft | 280 kts | 135° |
| 2026-04-30 18:11 | -4.92811 | 32.66331 | 8050 ft | 275 kts | 135° |
| 2026-04-30 18:12 | -4.96763 | 32.70204 | 7063 ft | 271 kts | 135° |
| 2026-04-30 18:13 | -4.99444 | 32.72832 | 6415 ft | 278 kts | 135° |
| 2026-04-30 18:13 | -5.02997 | 32.76454 | 5320 ft | 236 kts | 127° |
| 2026-04-30 18:14 | -5.04721 | 32.78939 | 4737 ft | 178 kts | 125° |
| 2026-04-30 18:15 | -5.06625 | 32.81651 | 4105 ft | 134 kts | 126° |
| 2026-04-30 18:15 | -5.07718 | 32.83209 | 3869 ft | 5 kts | 49° |
| 2026-04-30 18:16 | -5.07553 | 32.82978 | 3872 ft | 48 kts | 304° |
| 2026-04-30 18:16 | -5.07231 | 32.82542 | 3866 ft | 9 kts | 287° |
| 2026-04-30 18:17 | -5.07246 | 32.82542 | 3863 ft | 0 kts | 126° |